Flight Track Log - Related Links

Times and Time Zones

All times are in EDT time to prevent confusion due to time zone crossing. See the EJA328 flight status page for this flight to view local times or setup timezone preferences in your user account.

Time Position Orientation Groundspeed Altitude Reporting Facility
EDT Latitude Longitude Course Direction KTS MPH feet Rate Location/Type
Sun 01:32:25 PM 33.9932 -118.4972 276° West 205 236 2,400  Level FlightAware ADS-B
Sun 01:33:37 PM 34.0033 -118.5958 278° West 253 291 5,400 2,609 Climbing FlightAware ADS-B
Sun 01:33:57 PM 34.0066 -118.6240 279° West 269 310 6,400 1,636 Climbing FlightAware ADS-B
Sun 01:34:32 PM 34.0127 -118.6700 279° West 283 326 6,900 982 Climbing FlightAware ADS-B
Sun 01:34:52 PM 34.0185 -118.7074 283° West 290 334 7,300 1,556 Climbing FlightAware ADS-B
Sun 01:34:59 PM 34.0212 -118.7151 300° West 293 337 7,600 1,714 Climbing FlightAware ADS-B
Sun 01:35:13 PM 34.0341 -118.7326 323° Northwest 291 335 7,900 1,500 Climbing FlightAware ADS-B
Sun 01:35:19 PM 34.0430 -118.7384 336° Northwest 291 335 8,100 1,385 Climbing FlightAware ADS-B
Sun 01:35:26 PM 34.0481 -118.7406 343° North 291 335 8,200 1,077 Climbing FlightAware ADS-B
Sun 01:35:58 PM 34.0916 -118.7278 41° Northeast 284 327 8,800 706 Climbing FlightAware ADS-B
Sun 01:36:51 PM 34.1437 -118.6725 41° Northeast 286 329 9,200 1,069 Climbing FlightAware ADS-B
Sun 01:37:39 PM 34.1944 -118.6222 28° Northeast 294 338 10,600 1,971 Climbing FlightAware ADS-B
Sun 01:38:01 PM 34.2232 -118.6137 North 294 338 11,500 1,857 Climbing FlightAware ADS-B
Sun 01:38:21 PM 34.2502 -118.6221 340° North 308 354 11,900 1,500 Climbing FlightAware ADS-B
Sun 01:39:01 PM 34.3081 -118.6465 341° North 341 392 13,000 2,340 Climbing FlightAware ADS-B
Sun 01:40:01 PM 34.3992 -118.6856 340° North 351 404 15,800 2,640 Climbing FlightAware ADS-B
Sun 01:40:41 PM 34.4608 -118.7121 340° North 361 415 17,400 2,340 Climbing FlightAware ADS-B
Sun 01:41:41 PM 34.5525 -118.7520 340° North 373 429 19,700 1,828 Climbing FlightAware ADS-B
Sun 01:46:06 PM 35.0254 -118.9070 352° North 421 484 27,300 1,601 Climbing FlightAware ADS-B
Sun 01:46:52 PM 35.1124 -118.9213 352° North 434 499 28,000 1,103 Climbing FlightAware ADS-B
Sun 01:47:33 PM 35.1971 -118.9352 352° North 437 503 28,900 1,342 Climbing FlightAware ADS-B
Sun 01:48:08 PM 35.2680 -118.9469 352° North 440 506 29,700 695 Climbing FlightAware ADS-B
Sun 01:49:08 PM 35.3907 -118.9671 352° North 452 520 30,000 118 Climbing FlightAware ADS-B
Sun 01:50:40 PM 35.5758 -118.9977 352° North 439 505 30,000  Level FlightAware ADS-B
Sun 01:51:15 PM 35.6501 -119.0101 352° North 445 512 30,000  Level FlightAware ADS-B
Sun 01:52:01 PM 35.7219 -119.0239 352° North 445 512 30,000  Level Los Angeles Center
Sun 01:53:04 PM 35.8700 -119.0483 352° North 445 512 30,000  Level Los Angeles Center
Sun 01:54:32 PM 36.0444 -119.0775 352° North 454 522 30,000  Level Oakland Center
Sun 01:55:34 PM 36.1694 -119.0994 352° North 455 524 30,000  Level Oakland Center
Sun 02:01:13 PM 36.7954 -119.2035 352° North 442 509 30,000  Level FlightAware ADS-B (KSAC)
Sun 02:03:08 PM 37.0827 -119.2529 352° North 442 509 30,000  Level FlightAware ADS-B (KSAC)
Sun 02:03:53 PM 37.1854 -119.2708 352° North 441 507 30,000  Level FlightAware ADS-B (KSAC)
Sun 02:04:33 PM 37.2652 -119.2846 352° North 440 506 30,000  Level FlightAware ADS-B (KSAC)
Sun 02:05:13 PM 37.3423 -119.2980 352° North 439 505 30,000  Level FlightAware ADS-B (KSAC)
Sun 02:05:54 PM 37.4304 -119.3133 352° North 439 505 30,000  Level FlightAware ADS-B (KSAC)
Sun 02:06:52 PM 37.5480 -119.3339 352° North 438 504 30,000 -416 Level FlightAware ADS-B (KSAC)
Sun 02:07:35 PM 37.6338 -119.3489 352° North 431 496 29,300 -1,352 Descending FlightAware ADS-B (KSAC)
Sun 02:09:14 PM 37.8251 -119.3825 352° North 426 490 26,800 -1,533 Descending FlightAware ADS-B (KSAC)
Sun 02:09:52 PM 37.8745 -119.3912 352° North 431 496 25,800 -1,538 Descending FlightAware ADS-B (KSAC)
Sun 02:10:32 PM 37.9789 -119.4096 352° North 426 490 24,800 -1,317 Descending FlightAware ADS-B (KSAC)
Sun 02:11:14 PM 38.0626 -119.4245 352° North 425 489 24,000 -475 Descending FlightAware ADS-B (KSAC)
Sun 02:12:13 PM 38.1718 -119.4440 352° North 422 486 24,000 -545 Level FlightAware ADS-B (KSAC)
Sun 02:12:53 PM 38.2538 -119.4585 352° North 411 473 23,100 -1,425 Descending FlightAware ADS-B (KSAC)
Sun 02:13:33 PM 38.3264 -119.4714 352° North 402 463 22,100 -1,485 Descending FlightAware ADS-B (KSAC)
Sun 02:14:34 PM 38.4395 -119.4917 352° North 393 452 20,600 -1,529 Descending FlightAware ADS-B (KSAC)
Sun 02:15:15 PM 38.5046 -119.5257 327° Northwest 383 441 19,500 -1,500 Descending FlightAware ADS-B (KSAC)
Sun 02:15:54 PM 38.5644 -119.5715 329° Northwest 381 438 18,600 -1,215 Descending FlightAware ADS-B (KSAC)
Sun 02:16:34 PM 38.6301 -119.6199 329° Northwest 376 433 17,900 -1,291 Descending FlightAware ADS-B (KSAC)
Sun 02:17:13 PM 38.6857 -119.6613 329° Northwest 359 413 16,900 -1,500 Descending FlightAware ADS-B (KSAC)
Sun 02:17:54 PM 38.7457 -119.7061 329° Northwest 359 413 15,900 -1,307 Descending FlightAware ADS-B (KSAC)
Sun 02:18:54 PM 38.8324 -119.7710 329° Northwest 350 403 14,700 -1,091 Descending FlightAware ADS-B (KSAC)
Sun 02:19:33 PM 38.8729 -119.8013 329° Northwest 333 383 14,100 -532 Descending FlightAware ADS-B (KSAC)
Sun 02:20:13 PM 38.9374 -119.8498 329° Northwest 322 371 14,000 -420 Descending FlightAware ADS-B (KSAC)
Sun 02:21:56 PM 39.0542 -119.9379 329° Northwest 274 315 13,100 -423 Descending FlightAware ADS-B (KSAC)
Sun 02:22:35 PM 39.1011 -119.9733 329° Northwest 282 325 13,000 -78 Descending FlightAware ADS-B (KSAC)
Sun 02:23:13 PM 39.1439 -120.0057 329° Northwest 280 322 13,000 -180 Level FlightAware ADS-B (KSAC)
Sun 02:24:15 PM 39.2082 -120.0541 330° Northwest 239 275 12,700 -645 Descending FlightAware ADS-B (KSAC)
Sun 02:25:14 PM 39.2594 -120.0916 330° Northwest 205 236 11,700 -970 Descending FlightAware ADS-B (KSAC)
Sun 02:25:54 PM 39.2869 -120.1125 328° Northwest 190 219 11,100 -891 Descending FlightAware ADS-B (KSAC)
Sun 02:26:55 PM 39.3310 -120.1483 314° West 155 178 10,200 -882 Descending FlightAware ADS-B (KSAC)
Sun 02:27:02 PM 39.3335 -120.1529 300° West 159 183 10,100 -600 Descending FlightAware ADS-B (KSAC)
Sun 02:28:25 PM 39.3069 -120.2086 300° West 180 207 9,300 -578 Descending Oakland Center
Sun 02:30:00 PM 39.3167 -120.1333 72° East  Level FlightAware Approximate
Sun 02:37:00 PM 39.3200 -120.1396 72° East  Level Estimated
Sun 02:38:00 PM 39.3167 -120.1333 72° East  Level FlightAware Approximate
Sun 02:39:00 PM 39.3200 -120.1396 72° East  Level Estimated
Sun 02:40:00 PM 39.3167 -120.1333 72° East  Level FlightAware Approximate
Sun 02:41:00 PM 39.3200 -120.1396 72° East  Level Estimated
Sun 02:42:00 PM 39.3167 -120.1333 72° East  Level FlightAware Approximate
Sun 02:43:00 PM 39.3200 -120.1396 72° East  Level Estimated
Sun 02:44:00 PM 39.3167 -120.1333 72° East  Level FlightAware Approximate

Login

Don't have an account? Register now (free) for customized features, flight alerts, and more!